sensor_id;sensor_type;location;lat;lon;timestamp;temperature;humidity
8643;DHT22;4359;49.358;11.256;2023-03-03T00:01:53;-2.20;99.90
8643;DHT22;4359;49.358;11.256;2023-03-03T00:04:18;-2.20;99.90
8643;DHT22;4359;49.358;11.256;2023-03-03T00:06:44;-2.30;99.90
8643;DHT22;4359;49.358;11.256;2023-03-03T00:09:09;-2.40;99.90
8643;DHT22;4359;49.358;11.256;2023-03-03T00:11:35;-2.40;99.90
8643;DHT22;4359;49.358;11.256;2023-03-03T00:14:00;-2.30;99.90
8643;DHT22;4359;49.358;11.256;2023-03-03T00:16:27;-2.30;99.90
8643;DHT22;4359;49.358;11.256;2023-03-03T00:18:53;-2.30;99.90
8643;DHT22;4359;49.358;11.256;2023-03-03T00:23:47;-2.40;99.90
8643;DHT22;4359;49.358;11.256;2023-03-03T00:26:26;-2.40;99.90
8643;DHT22;4359;49.358;11.256;2023-03-03T00:28:53;-2.40;99.90
8643;DHT22;4359;49.358;11.256;2023-03-03T00:31:42;-2.40;99.90
8643;DHT22;4359;49.358;11.256;2023-03-03T00:36:41;-2.50;99.90
8643;DHT22;4359;49.358;11.256;2023-03-03T00:39:17;-2.60;99.90
8643;DHT22;4359;49.358;11.256;2023-03-03T00:41:43;-2.60;99.90
8643;DHT22;4359;49.358;11.256;2023-03-03T02:40:15;-3.10;99.90
8643;DHT22;4359;49.358;11.256;2023-03-03T02:42:44;-3.20;99.90
8643;DHT22;4359;49.358;11.256;2023-03-03T02:45:09;-3.20;99.90
8643;DHT22;4359;49.358;11.256;2023-03-03T02:47:35;-3.10;99.90
8643;DHT22;4359;49.358;11.256;2023-03-03T02:50:00;-3.00;99.90
8643;DHT22;4359;49.358;11.256;2023-03-03T02:52:26;-3.00;99.90
8643;DHT22;4359;49.358;11.256;2023-03-03T02:54:52;-3.00;99.90
8643;DHT22;4359;49.358;11.256;2023-03-03T02:57:17;-3.00;99.90
8643;DHT22;4359;49.358;11.256;2023-03-03T02:59:43;-3.20;99.90
8643;DHT22;4359;49.358;11.256;2023-03-03T03:02:08;-3.20;99.90
8643;DHT22;4359;49.358;11.256;2023-03-03T03:04:35;-3.20;99.90
8643;DHT22;4359;49.358;11.256;2023-03-03T03:07:00;-3.30;99.90
8643;DHT22;4359;49.358;11.256;2023-03-03T03:09:26;-3.40;99.90
8643;DHT22;4359;49.358;11.256;2023-03-03T03:11:52;-3.50;99.90
8643;DHT22;4359;49.358;11.256;2023-03-03T03:14:18;-3.50;99.90
8643;DHT22;4359;49.358;11.256;2023-03-03T03:16:44;-3.60;99.90
8643;DHT22;4359;49.358;11.256;2023-03-03T03:19:09;-3.60;99.90
8643;DHT22;4359;49.358;11.256;2023-03-03T03:21:35;-3.80;99.90
8643;DHT22;4359;49.358;11.256;2023-03-03T03:24:01;-3.70;99.90
8643;DHT22;4359;49.358;11.256;2023-03-03T03:26:26;-3.60;99.90
8643;DHT22;4359;49.358;11.256;2023-03-03T03:28:52;-3.60;99.90
8643;DHT22;4359;49.358;11.256;2023-03-03T03:31:18;-3.60;99.90
8643;DHT22;4359;49.358;11.256;2023-03-03T03:33:44;-3.70;99.90
8643;DHT22;4359;49.358;11.256;2023-03-03T03:36:10;-3.70;99.90
8643;DHT22;4359;49.358;11.256;2023-03-03T03:38:36;-3.70;99.90
8643;DHT22;4359;49.358;11.256;2023-03-03T03:41:02;-3.70;99.90
8643;DHT22;4359;49.358;11.256;2023-03-03T03:43:28;-3.60;99.90
8643;DHT22;4359;49.358;11.256;2023-03-03T03:45:53;-3.60;99.90
8643;DHT22;4359;49.358;11.256;2023-03-03T03:48:19;-3.60;99.90
8643;DHT22;4359;49.358;11.256;2023-03-03T03:50:46;-3.70;99.90
8643;DHT22;4359;49.358;11.256;2023-03-03T03:53:11;-3.80;99.90
8643;DHT22;4359;49.358;11.256;2023-03-03T03:55:37;-3.70;99.90
8643;DHT22;4359;49.358;11.256;2023-03-03T03:58:03;-3.80;99.90
8643;DHT22;4359;49.358;11.256;2023-03-03T04:00:28;-3.80;99.90
8643;DHT22;4359;49.358;11.256;2023-03-03T04:02:54;-3.90;99.90
8643;DHT22;4359;49.358;11.256;2023-03-03T04:05:19;-3.80;99.90
8643;DHT22;4359;49.358;11.256;2023-03-03T04:07:45;-4.00;99.90
8643;DHT22;4359;49.358;11.256;2023-03-03T04:10:10;-4.00;99.90
8643;DHT22;4359;49.358;11.256;2023-03-03T04:12:36;-4.00;99.90
8643;DHT22;4359;49.358;11.256;2023-03-03T04:15:05;-4.10;99.90
8643;DHT22;4359;49.358;11.256;2023-03-03T04:17:31;-4.20;99.90
8643;DHT22;4359;49.358;11.256;2023-03-03T04:19:57;-4.10;99.90
8643;DHT22;4359;49.358;11.256;2023-03-03T04:22:22;-4.10;99.90
8643;DHT22;4359;49.358;11.256;2023-03-03T04:24:48;-4.00;99.90
8643;DHT22;4359;49.358;11.256;2023-03-03T04:27:14;-4.10;99.90
8643;DHT22;4359;49.358;11.256;2023-03-03T04:29:40;-4.20;99.90
8643;DHT22;4359;49.358;11.256;2023-03-03T04:32:05;-4.20;99.90
8643;DHT22;4359;49.358;11.256;2023-03-03T04:34:31;-4.30;99.90
8643;DHT22;4359;49.358;11.256;2023-03-03T04:36:56;-4.20;99.90
8643;DHT22;4359;49.358;11.256;2023-03-03T04:39:22;-4.20;99.90
8643;DHT22;4359;49.358;11.256;2023-03-03T04:41:47;-4.00;99.90
8643;DHT22;4359;49.358;11.256;2023-03-03T04:44:13;-4.00;99.90
8643;DHT22;4359;49.358;11.256;2023-03-03T04:46:38;-3.90;99.90
8643;DHT22;4359;49.358;11.256;2023-03-03T04:49:04;-3.90;99.90
8643;DHT22;4359;49.358;11.256;2023-03-03T04:51:32;-4.00;99.90
8643;DHT22;4359;49.358;11.256;2023-03-03T04:53:57;-4.10;99.90
8643;DHT22;4359;49.358;11.256;2023-03-03T04:56:24;-4.20;99.90
8643;DHT22;4359;49.358;11.256;2023-03-03T04:58:50;-4.20;99.90
8643;DHT22;4359;49.358;11.256;2023-03-03T05:01:15;-4.20;99.90
8643;DHT22;4359;49.358;11.256;2023-03-03T05:03:41;-4.20;99.90
8643;DHT22;4359;49.358;11.256;2023-03-03T05:06:06;-4.20;99.90
8643;DHT22;4359;49.358;11.256;2023-03-03T05:08:32;-4.30;99.90
8643;DHT22;4359;49.358;11.256;2023-03-03T05:10:58;-4.30;99.90
8643;DHT22;4359;49.358;11.256;2023-03-03T05:13:27;-4.40;99.90
8643;DHT22;4359;49.358;11.256;2023-03-03T05:15:53;-4.40;99.90
8643;DHT22;4359;49.358;11.256;2023-03-03T05:18:22;-4.50;99.90
8643;DHT22;4359;49.358;11.256;2023-03-03T05:20:48;-4.40;99.90
8643;DHT22;4359;49.358;11.256;2023-03-03T05:23:14;-4.40;99.90
8643;DHT22;4359;49.358;11.256;2023-03-03T05:25:40;-4.40;99.90
8643;DHT22;4359;49.358;11.256;2023-03-03T05:28:06;-4.40;99.90
8643;DHT22;4359;49.358;11.256;2023-03-03T05:30:31;-4.50;99.90
8643;DHT22;4359;49.358;11.256;2023-03-03T05:32:57;-4.40;99.90
8643;DHT22;4359;49.358;11.256;2023-03-03T05:35:24;-4.50;99.90
8643;DHT22;4359;49.358;11.256;2023-03-03T05:37:49;-4.40;99.90
8643;DHT22;4359;49.358;11.256;2023-03-03T05:40:15;-4.50;99.90
8643;DHT22;4359;49.358;11.256;2023-03-03T05:42:40;-4.50;99.90
8643;DHT22;4359;49.358;11.256;2023-03-03T05:45:06;-4.50;99.90
8643;DHT22;4359;49.358;11.256;2023-03-03T05:47:32;-4.60;99.90
8643;DHT22;4359;49.358;11.256;2023-03-03T05:49:57;-4.60;99.90
8643;DHT22;4359;49.358;11.256;2023-03-03T05:52:24;-4.60;99.90
8643;DHT22;4359;49.358;11.256;2023-03-03T05:54:49;-4.60;99.90
8643;DHT22;4359;49.358;11.256;2023-03-03T05:57:15;-4.70;99.90
8643;DHT22;4359;49.358;11.256;2023-03-03T05:59:40;-4.70;99.90
8643;DHT22;4359;49.358;11.256;2023-03-03T06:02:06;-4.70;99.90
8643;DHT22;4359;49.358;11.256;2023-03-03T06:04:32;-4.70;99.90
8643;DHT22;4359;49.358;11.256;2023-03-03T06:06:58;-4.70;99.90
8643;DHT22;4359;49.358;11.256;2023-03-03T06:09:23;-4.70;99.90
8643;DHT22;4359;49.358;11.256;2023-03-03T06:11:50;-4.60;99.90
8643;DHT22;4359;49.358;11.256;2023-03-03T06:14:21;-4.50;99.90
8643;DHT22;4359;49.358;11.256;2023-03-03T06:16:47;-4.50;99.90
8643;DHT22;4359;49.358;11.256;2023-03-03T06:19:13;-4.50;99.90
8643;DHT22;4359;49.358;11.256;2023-03-03T06:21:38;-4.40;99.90
8643;DHT22;4359;49.358;11.256;2023-03-03T06:24:04;-4.30;99.90
8643;DHT22;4359;49.358;11.256;2023-03-03T06:26:30;-4.10;99.90
8643;DHT22;4359;49.358;11.256;2023-03-03T06:28:56;-3.90;99.90
8643;DHT22;4359;49.358;11.256;2023-03-03T06:31:21;-3.70;99.90
8643;DHT22;4359;49.358;11.256;2023-03-03T06:33:47;-3.60;99.90
8643;DHT22;4359;49.358;11.256;2023-03-03T06:36:12;-3.40;99.90
8643;DHT22;4359;49.358;11.256;2023-03-03T06:38:38;-3.30;99.90
8643;DHT22;4359;49.358;11.256;2023-03-03T06:41:04;-3.20;99.90
8643;DHT22;4359;49.358;11.256;2023-03-03T06:43:34;-3.10;99.90
8643;DHT22;4359;49.358;11.256;2023-03-03T06:46:01;-3.00;99.90
8643;DHT22;4359;49.358;11.256;2023-03-03T06:48:26;-2.80;99.90
8643;DHT22;4359;49.358;11.256;2023-03-03T06:50:52;-2.60;99.90
8643;DHT22;4359;49.358;11.256;2023-03-03T06:53:17;-2.50;99.90
8643;DHT22;4359;49.358;11.256;2023-03-03T06:55:43;-2.30;99.90
8643;DHT22;4359;49.358;11.256;2023-03-03T06:58:14;-2.10;99.90
8643;DHT22;4359;49.358;11.256;2023-03-03T07:00:41;-2.00;99.90
8643;DHT22;4359;49.358;11.256;2023-03-03T07:03:13;-1.90;99.90
8643;DHT22;4359;49.358;11.256;2023-03-03T07:05:39;-1.90;99.90
8643;DHT22;4359;49.358;11.256;2023-03-03T07:08:14;-1.90;99.90
8643;DHT22;4359;49.358;11.256;2023-03-03T07:10:41;-1.40;99.90
8643;DHT22;4359;49.358;11.256;2023-03-03T07:15:45;-0.40;99.90
8643;DHT22;4359;49.358;11.256;2023-03-03T07:18:20;0.40;99.90
8643;DHT22;4359;49.358;11.256;2023-03-03T07:20:47;0.80;99.90
8643;DHT22;4359;49.358;11.256;2023-03-03T07:23:22;1.00;99.90
8643;DHT22;4359;49.358;11.256;2023-03-03T07:25:48;1.30;99.90
8643;DHT22;4359;49.358;11.256;2023-03-03T07:28:25;1.60;99.90
8643;DHT22;4359;49.358;11.256;2023-03-03T07:30:54;1.70;99.90
8643;DHT22;4359;49.358;11.256;2023-03-03T07:33:38;1.50;99.90
8643;DHT22;4359;49.358;11.256;2023-03-03T07:36:17;1.50;99.90
8643;DHT22;4359;49.358;11.256;2023-03-03T07:38:52;1.50;99.90
8643;DHT22;4359;49.358;11.256;2023-03-03T07:41:18;1.60;99.90
8643;DHT22;4359;49.358;11.256;2023-03-03T07:43:53;2.30;99.90
8643;DHT22;4359;49.358;11.256;2023-03-03T07:46:40;3.40;99.90
8643;DHT22;4359;49.358;11.256;2023-03-03T07:49:15;4.10;99.90
8643;DHT22;4359;49.358;11.256;2023-03-03T07:51:44;4.40;99.90
8643;DHT22;4359;49.358;11.256;2023-03-03T07:54:15;4.70;99.90
8643;DHT22;4359;49.358;11.256;2023-03-03T07:56:42;4.40;99.90
8643;DHT22;4359;49.358;11.256;2023-03-03T07:59:28;3.70;99.90
8643;DHT22;4359;49.358;11.256;2023-03-03T08:01:56;3.10;99.90
8643;DHT22;4359;49.358;11.256;2023-03-03T08:04:40;2.70;99.90
8643;DHT22;4359;49.358;11.256;2023-03-03T08:07:13;2.50;99.90
8643;DHT22;4359;49.358;11.256;2023-03-03T08:09:47;2.80;99.90
8643;DHT22;4359;49.358;11.256;2023-03-03T08:12:30;3.10;99.90
8643;DHT22;4359;49.358;11.256;2023-03-03T08:14:57;3.00;99.90
8643;DHT22;4359;49.358;11.256;2023-03-03T08:17:28;2.80;99.90
8643;DHT22;4359;49.358;11.256;2023-03-03T08:19:55;2.40;99.90
8643;DHT22;4359;49.358;11.256;2023-03-03T08:22:32;2.10;99.90
8643;DHT22;4359;49.358;11.256;2023-03-03T08:24:59;1.90;99.90
8643;DHT22;4359;49.358;11.256;2023-03-03T08:27:25;2.20;99.90
8643;DHT22;4359;49.358;11.256;2023-03-03T08:29:50;2.50;99.90
8643;DHT22;4359;49.358;11.256;2023-03-03T08:32:16;2.90;99.90
8643;DHT22;4359;49.358;11.256;2023-03-03T08:34:41;3.30;99.90
8643;DHT22;4359;49.358;11.256;2023-03-03T08:37:07;3.70;99.90
8643;DHT22;4359;49.358;11.256;2023-03-03T08:39:32;4.00;99.90
8643;DHT22;4359;49.358;11.256;2023-03-03T08:41:58;4.40;99.90
8643;DHT22;4359;49.358;11.256;2023-03-03T08:44:23;4.70;99.90
8643;DHT22;4359;49.358;11.256;2023-03-03T08:46:49;4.80;99.90
8643;DHT22;4359;49.358;11.256;2023-03-03T08:49:15;5.30;99.90
8643;DHT22;4359;49.358;11.256;2023-03-03T08:51:40;6.00;99.90
8643;DHT22;4359;49.358;11.256;2023-03-03T08:54:06;6.50;99.90
8643;DHT22;4359;49.358;11.256;2023-03-03T08:56:31;6.40;99.90
8643;DHT22;4359;49.358;11.256;2023-03-03T08:58:57;6.10;99.90
8643;DHT22;4359;49.358;11.256;2023-03-03T09:01:23;6.10;99.90
8643;DHT22;4359;49.358;11.256;2023-03-03T09:03:48;6.80;99.90
8643;DHT22;4359;49.358;11.256;2023-03-03T09:06:14;7.30;99.90
8643;DHT22;4359;49.358;11.256;2023-03-03T09:08:39;7.70;99.90
8643;DHT22;4359;49.358;11.256;2023-03-03T09:11:09;7.40;99.90
8643;DHT22;4359;49.358;11.256;2023-03-03T09:13:34;7.90;99.90
8643;DHT22;4359;49.358;11.256;2023-03-03T09:16:00;7.90;99.90
8643;DHT22;4359;49.358;11.256;2023-03-03T09:20:54;8.20;99.90
8643;DHT22;4359;49.358;11.256;2023-03-03T09:25:49;7.90;99.90
8643;DHT22;4359;49.358;11.256;2023-03-03T09:28:28;7.60;99.90
8643;DHT22;4359;49.358;11.256;2023-03-03T09:30:56;8.00;99.90
8643;DHT22;4359;49.358;11.256;2023-03-03T09:33:23;8.20;99.90
8643;DHT22;4359;49.358;11.256;2023-03-03T09:35:49;8.20;99.90
8643;DHT22;4359;49.358;11.256;2023-03-03T09:40:55;9.10;99.90
8643;DHT22;4359;49.358;11.256;2023-03-03T09:46:06;8.90;99.90
8643;DHT22;4359;49.358;11.256;2023-03-03T09:51:12;8.50;99.90
8643;DHT22;4359;49.358;11.256;2023-03-03T10:06:33;10.00;99.90
8643;DHT22;4359;49.358;11.256;2023-03-03T10:11:55;9.40;99.90
8643;DHT22;4359;49.358;11.256;2023-03-03T10:17:16;9.30;99.90
8643;DHT22;4359;49.358;11.256;2023-03-03T10:24:42;8.30;99.90
8643;DHT22;4359;49.358;11.256;2023-03-03T10:34:53;9.00;99.90
8643;DHT22;4359;49.358;11.256;2023-03-03T10:37:27;9.40;99.90
8643;DHT22;4359;49.358;11.256;2023-03-03T10:42:46;9.10;99.90
8643;DHT22;4359;49.358;11.256;2023-03-03T10:48:07;8.90;99.90
8643;DHT22;4359;49.358;11.256;2023-03-03T10:50:55;9.30;99.90
8643;DHT22;4359;49.358;11.256;2023-03-03T10:53:28;9.30;99.90
8643;DHT22;4359;49.358;11.256;2023-03-03T11:01:21;8.90;99.90
8643;DHT22;4359;49.358;11.256;2023-03-03T11:11:40;9.40;99.90
8643;DHT22;4359;49.358;11.256;2023-03-03T11:14:23;9.50;99.90
8643;DHT22;4359;49.358;11.256;2023-03-03T11:16:55;9.70;99.90
8643;DHT22;4359;49.358;11.256;2023-03-03T11:19:34;9.90;99.90
8643;DHT22;4359;49.358;11.256;2023-03-03T11:27:12;10.30;99.90
8643;DHT22;4359;49.358;11.256;2023-03-03T11:32:15;10.00;99.90
8643;DHT22;4359;49.358;11.256;2023-03-03T11:37:23;10.20;99.90
8643;DHT22;4359;49.358;11.256;2023-03-03T11:39:52;10.90;99.90
8643;DHT22;4359;49.358;11.256;2023-03-03T11:42:31;11.10;99.90
8643;DHT22;4359;49.358;11.256;2023-03-03T11:47:42;11.10;99.90
8643;DHT22;4359;49.358;11.256;2023-03-03T11:50:15;11.30;99.90
8643;DHT22;4359;49.358;11.256;2023-03-03T11:55:15;11.10;99.90
8643;DHT22;4359;49.358;11.256;2023-03-03T11:57:47;11.40;99.90
8643;DHT22;4359;49.358;11.256;2023-03-03T12:07:51;11.30;99.90
8643;DHT22;4359;49.358;11.256;2023-03-03T12:13:24;11.10;99.90
8643;DHT22;4359;49.358;11.256;2023-03-03T12:15:54;11.40;99.90
8643;DHT22;4359;49.358;11.256;2023-03-03T12:26:00;11.50;99.90
8643;DHT22;4359;49.358;11.256;2023-03-03T12:28:32;11.30;99.90
8643;DHT22;4359;49.358;11.256;2023-03-03T12:31:09;11.30;99.90
8643;DHT22;4359;49.358;11.256;2023-03-03T12:36:14;11.60;99.90
8643;DHT22;4359;49.358;11.256;2023-03-03T12:43:55;11.40;99.90
8643;DHT22;4359;49.358;11.256;2023-03-03T12:49:04;11.60;99.90
8643;DHT22;4359;49.358;11.256;2023-03-03T12:56:52;12.00;99.90
8643;DHT22;4359;49.358;11.256;2023-03-03T12:59:19;12.30;99.90
8643;DHT22;4359;49.358;11.256;2023-03-03T13:01:56;12.70;99.90
8643;DHT22;4359;49.358;11.256;2023-03-03T13:07:16;12.20;99.50
8643;DHT22;4359;49.358;11.256;2023-03-03T13:17:22;13.00;99.20
8643;DHT22;4359;49.358;11.256;2023-03-03T13:19:51;12.90;99.10
8643;DHT22;4359;49.358;11.256;2023-03-03T13:27:31;11.70;99.70
8643;DHT22;4359;49.358;11.256;2023-03-03T13:30:02;11.90;99.90
8643;DHT22;4359;49.358;11.256;2023-03-03T13:37:26;13.10;98.90
8643;DHT22;4359;49.358;11.256;2023-03-03T13:39:57;13.20;99.20
8643;DHT22;4359;49.358;11.256;2023-03-03T13:42:37;13.30;98.20
8643;DHT22;4359;49.358;11.256;2023-03-03T13:45:23;13.50;98.10
8643;DHT22;4359;49.358;11.256;2023-03-03T13:50:22;12.70;98.60
8643;DHT22;4359;49.358;11.256;2023-03-03T13:55:36;12.70;98.60
8643;DHT22;4359;49.358;11.256;2023-03-03T13:58:22;12.70;99.00
8643;DHT22;4359;49.358;11.256;2023-03-03T14:06:08;13.50;97.70
8643;DHT22;4359;49.358;11.256;2023-03-03T14:11:13;13.00;97.90
8643;DHT22;4359;49.358;11.256;2023-03-03T14:16:38;12.10;98.80
8643;DHT22;4359;49.358;11.256;2023-03-03T14:19:08;11.80;98.50
8643;DHT22;4359;49.358;11.256;2023-03-03T14:21:39;11.90;98.40
8643;DHT22;4359;49.358;11.256;2023-03-03T14:26:49;12.40;98.20
8643;DHT22;4359;49.358;11.256;2023-03-03T14:31:41;12.60;97.90
8643;DHT22;4359;49.358;11.256;2023-03-03T14:36:40;12.10;98.00
8643;DHT22;4359;49.358;11.256;2023-03-03T14:39:25;11.60;98.40
8643;DHT22;4359;49.358;11.256;2023-03-03T14:41:53;11.30;98.50
8643;DHT22;4359;49.358;11.256;2023-03-03T14:44:28;11.00;99.00
8643;DHT22;4359;49.358;11.256;2023-03-03T14:47:05;10.80;99.00
8643;DHT22;4359;49.358;11.256;2023-03-03T14:49:37;10.70;99.30
8643;DHT22;4359;49.358;11.256;2023-03-03T14:54:48;10.50;99.20
8643;DHT22;4359;49.358;11.256;2023-03-03T14:57:18;10.40;99.50
8643;DHT22;4359;49.358;11.256;2023-03-03T15:07:49;10.10;99.90
8643;DHT22;4359;49.358;11.256;2023-03-03T15:10:25;10.20;99.90
8643;DHT22;4359;49.358;11.256;2023-03-03T15:12:51;10.20;99.90
8643;DHT22;4359;49.358;11.256;2023-03-03T15:15:18;10.10;99.90
8643;DHT22;4359;49.358;11.256;2023-03-03T15:20:23;10.00;99.90
8643;DHT22;4359;49.358;11.256;2023-03-03T15:22:59;10.00;99.90
8643;DHT22;4359;49.358;11.256;2023-03-03T15:25:41;10.00;99.90
8643;DHT22;4359;49.358;11.256;2023-03-03T15:35:51;9.80;99.90
8643;DHT22;4359;49.358;11.256;2023-03-03T15:40:56;9.70;99.90
8643;DHT22;4359;49.358;11.256;2023-03-03T15:43:33;9.70;99.90
8643;DHT22;4359;49.358;11.256;2023-03-03T15:48:57;9.60;99.90
8643;DHT22;4359;49.358;11.256;2023-03-03T15:54:13;9.40;99.90
8643;DHT22;4359;49.358;11.256;2023-03-03T15:59:29;9.20;99.90
8643;DHT22;4359;49.358;11.256;2023-03-03T16:02:17;9.10;99.90
8643;DHT22;4359;49.358;11.256;2023-03-03T16:10:33;8.90;99.90
8643;DHT22;4359;49.358;11.256;2023-03-03T16:18:32;8.50;99.90
8643;DHT22;4359;49.358;11.256;2023-03-03T16:26:32;8.40;99.90
8643;DHT22;4359;49.358;11.256;2023-03-03T16:36:53;8.00;99.90
8643;DHT22;4359;49.358;11.256;2023-03-03T16:44:37;7.80;99.90
8643;DHT22;4359;49.358;11.256;2023-03-03T16:50:03;7.40;99.90
8643;DHT22;4359;49.358;11.256;2023-03-03T16:52:34;7.20;99.90
8643;DHT22;4359;49.358;11.256;2023-03-03T16:55:04;7.00;99.90
8643;DHT22;4359;49.358;11.256;2023-03-03T16:57:36;6.90;99.90
8643;DHT22;4359;49.358;11.256;2023-03-03T17:00:23;6.80;99.90
8643;DHT22;4359;49.358;11.256;2023-03-03T17:02:54;6.70;99.90
8643;DHT22;4359;49.358;11.256;2023-03-03T17:08:20;6.40;99.90
8643;DHT22;4359;49.358;11.256;2023-03-03T17:10:50;6.20;99.90
8643;DHT22;4359;49.358;11.256;2023-03-03T17:13:21;6.10;99.90
8643;DHT22;4359;49.358;11.256;2023-03-03T17:15:56;6.00;99.90
8643;DHT22;4359;49.358;11.256;2023-03-03T17:18:35;5.90;99.90
8643;DHT22;4359;49.358;11.256;2023-03-03T17:21:02;5.80;99.90
8643;DHT22;4359;49.358;11.256;2023-03-03T17:26:38;5.20;99.90
8643;DHT22;4359;49.358;11.256;2023-03-03T17:31:52;4.70;99.90
8643;DHT22;4359;49.358;11.256;2023-03-03T17:44:34;3.70;99.90
8643;DHT22;4359;49.358;11.256;2023-03-03T17:47:03;3.60;99.90
8643;DHT22;4359;49.358;11.256;2023-03-03T18:04:59;2.80;99.90
8643;DHT22;4359;49.358;11.256;2023-03-03T18:07:34;2.80;99.90
8643;DHT22;4359;49.358;11.256;2023-03-03T18:18:13;2.50;99.90
8643;DHT22;4359;49.358;11.256;2023-03-03T18:23:32;2.20;99.90
8643;DHT22;4359;49.358;11.256;2023-03-03T18:25:57;2.00;99.90
8643;DHT22;4359;49.358;11.256;2023-03-03T18:31:19;1.70;99.90
8643;DHT22;4359;49.358;11.256;2023-03-03T18:33:59;1.60;99.90
8643;DHT22;4359;49.358;11.256;2023-03-03T18:38:51;1.30;99.90
8643;DHT22;4359;49.358;11.256;2023-03-03T18:41:22;1.30;99.90
8643;DHT22;4359;49.358;11.256;2023-03-03T18:43:53;1.20;99.90
8643;DHT22;4359;49.358;11.256;2023-03-03T18:51:45;1.00;99.90
8643;DHT22;4359;49.358;11.256;2023-03-03T18:56:44;0.70;99.90
8643;DHT22;4359;49.358;11.256;2023-03-03T18:59:09;0.70;99.90
8643;DHT22;4359;49.358;11.256;2023-03-03T19:01:39;0.50;99.90
8643;DHT22;4359;49.358;11.256;2023-03-03T19:09:11;0.50;99.90
8643;DHT22;4359;49.358;11.256;2023-03-03T19:11:48;0.40;99.90
8643;DHT22;4359;49.358;11.256;2023-03-03T19:16:50;0.30;99.90
8643;DHT22;4359;49.358;11.256;2023-03-03T19:19:17;0.30;99.90
8643;DHT22;4359;49.358;11.256;2023-03-03T19:21:44;0.20;99.90
8643;DHT22;4359;49.358;11.256;2023-03-03T19:37:01;-0.30;99.90
8643;DHT22;4359;49.358;11.256;2023-03-03T19:47:05;-0.50;99.90
8643;DHT22;4359;49.358;11.256;2023-03-03T19:52:20;-0.60;99.90
8643;DHT22;4359;49.358;11.256;2023-03-03T19:54:50;-0.60;99.90
8643;DHT22;4359;49.358;11.256;2023-03-03T20:00:02;-0.70;99.90
8643;DHT22;4359;49.358;11.256;2023-03-03T20:02:45;-0.80;99.90
8643;DHT22;4359;49.358;11.256;2023-03-03T20:08:02;-1.00;99.90
8643;DHT22;4359;49.358;11.256;2023-03-03T20:13:27;-1.20;99.90
8643;DHT22;4359;49.358;11.256;2023-03-03T20:26:41;-1.50;99.90
8643;DHT22;4359;49.358;11.256;2023-03-03T20:29:32;-1.60;99.90
8643;DHT22;4359;49.358;11.256;2023-03-03T20:32:03;-1.70;99.90
8643;DHT22;4359;49.358;11.256;2023-03-03T20:37:11;-1.90;99.90
8643;DHT22;4359;49.358;11.256;2023-03-03T20:42:09;-2.10;99.90
8643;DHT22;4359;49.358;11.256;2023-03-03T20:50:52;-2.30;99.90
8643;DHT22;4359;49.358;11.256;2023-03-03T21:00:45;-2.50;99.90
8643;DHT22;4359;49.358;11.256;2023-03-03T21:03:17;-2.50;99.90
8643;DHT22;4359;49.358;11.256;2023-03-03T21:05:55;-2.50;99.90
8643;DHT22;4359;49.358;11.256;2023-03-03T21:08:30;-2.50;99.90
8643;DHT22;4359;49.358;11.256;2023-03-03T21:11:06;-2.50;99.90
8643;DHT22;4359;49.358;11.256;2023-03-03T21:13:39;-2.60;99.90
8643;DHT22;4359;49.358;11.256;2023-03-03T21:18:54;-2.60;99.90
8643;DHT22;4359;49.358;11.256;2023-03-03T21:21:21;-2.60;99.90
8643;DHT22;4359;49.358;11.256;2023-03-03T21:23:46;-2.60;99.90
8643;DHT22;4359;49.358;11.256;2023-03-03T21:26:12;-2.50;99.90
8643;DHT22;4359;49.358;11.256;2023-03-03T21:28:37;-2.50;99.90
8643;DHT22;4359;49.358;11.256;2023-03-03T21:33:48;-2.70;99.90
8643;DHT22;4359;49.358;11.256;2023-03-03T21:38:43;-2.70;99.90
8643;DHT22;4359;49.358;11.256;2023-03-03T21:41:10;-2.60;99.90
8643;DHT22;4359;49.358;11.256;2023-03-03T21:43:41;-2.80;99.90
8643;DHT22;4359;49.358;11.256;2023-03-03T21:46:06;-2.90;99.90
8643;DHT22;4359;49.358;11.256;2023-03-03T21:48:38;-2.90;99.90
8643;DHT22;4359;49.358;11.256;2023-03-03T21:51:04;-3.00;99.90
8643;DHT22;4359;49.358;11.256;2023-03-03T21:53:29;-3.00;99.90
8643;DHT22;4359;49.358;11.256;2023-03-03T21:55:55;-3.00;99.90
8643;DHT22;4359;49.358;11.256;2023-03-03T21:58:20;-3.10;99.90
8643;DHT22;4359;49.358;11.256;2023-03-03T22:00:46;-3.10;99.90
8643;DHT22;4359;49.358;11.256;2023-03-03T22:03:12;-3.10;99.90
8643;DHT22;4359;49.358;11.256;2023-03-03T22:05:39;-3.20;99.90
8643;DHT22;4359;49.358;11.256;2023-03-03T22:08:05;-3.20;99.90
8643;DHT22;4359;49.358;11.256;2023-03-03T22:10:30;-3.20;99.90
8643;DHT22;4359;49.358;11.256;2023-03-03T22:12:56;-3.30;99.90
8643;DHT22;4359;49.358;11.256;2023-03-03T22:15:21;-3.30;99.90
8643;DHT22;4359;49.358;11.256;2023-03-03T22:17:47;-3.40;99.90
8643;DHT22;4359;49.358;11.256;2023-03-03T22:20:13;-3.40;99.90
8643;DHT22;4359;49.358;11.256;2023-03-03T22:22:40;-3.50;99.90
8643;DHT22;4359;49.358;11.256;2023-03-03T22:25:05;-3.60;99.90
8643;DHT22;4359;49.358;11.256;2023-03-03T22:27:31;-3.60;99.90
8643;DHT22;4359;49.358;11.256;2023-03-03T22:29:57;-3.70;99.90
8643;DHT22;4359;49.358;11.256;2023-03-03T22:32:22;-3.70;99.90
8643;DHT22;4359;49.358;11.256;2023-03-03T22:34:48;-3.70;99.90
8643;DHT22;4359;49.358;11.256;2023-03-03T22:37:13;-3.60;99.90
8643;DHT22;4359;49.358;11.256;2023-03-03T22:39:39;-3.60;99.90
8643;DHT22;4359;49.358;11.256;2023-03-03T22:42:04;-3.60;99.90
8643;DHT22;4359;49.358;11.256;2023-03-03T22:44:30;-3.60;99.90
8643;DHT22;4359;49.358;11.256;2023-03-03T22:46:56;-3.60;99.90
8643;DHT22;4359;49.358;11.256;2023-03-03T22:49:22;-3.60;99.90
8643;DHT22;4359;49.358;11.256;2023-03-03T22:51:47;-3.60;99.90
8643;DHT22;4359;49.358;11.256;2023-03-03T22:54:13;-3.50;99.90
8643;DHT22;4359;49.358;11.256;2023-03-03T22:56:38;-3.60;99.90
8643;DHT22;4359;49.358;11.256;2023-03-03T22:59:04;-3.60;99.90
8643;DHT22;4359;49.358;11.256;2023-03-03T23:01:29;-3.60;99.90
8643;DHT22;4359;49.358;11.256;2023-03-03T23:03:55;-3.60;99.90
8643;DHT22;4359;49.358;11.256;2023-03-03T23:06:20;-3.70;99.90
8643;DHT22;4359;49.358;11.256;2023-03-03T23:08:46;-3.60;99.90
8643;DHT22;4359;49.358;11.256;2023-03-03T23:11:11;-3.70;99.90
8643;DHT22;4359;49.358;11.256;2023-03-03T23:13:37;-3.80;99.90
8643;DHT22;4359;49.358;11.256;2023-03-03T23:16:03;-3.80;99.90
8643;DHT22;4359;49.358;11.256;2023-03-03T23:18:28;-3.80;99.90
8643;DHT22;4359;49.358;11.256;2023-03-03T23:20:54;-3.70;99.90
8643;DHT22;4359;49.358;11.256;2023-03-03T23:23:20;-3.70;99.90
8643;DHT22;4359;49.358;11.256;2023-03-03T23:25:46;-3.80;99.90
8643;DHT22;4359;49.358;11.256;2023-03-03T23:28:12;-3.80;99.90
8643;DHT22;4359;49.358;11.256;2023-03-03T23:30:40;-3.80;99.90
8643;DHT22;4359;49.358;11.256;2023-03-03T23:33:06;-3.90;99.90
8643;DHT22;4359;49.358;11.256;2023-03-03T23:35:31;-3.90;99.90
8643;DHT22;4359;49.358;11.256;2023-03-03T23:37:57;-3.90;99.90
8643;DHT22;4359;49.358;11.256;2023-03-03T23:40:22;-4.00;99.90
8643;DHT22;4359;49.358;11.256;2023-03-03T23:42:48;-4.00;99.90
8643;DHT22;4359;49.358;11.256;2023-03-03T23:45:14;-4.00;99.90
8643;DHT22;4359;49.358;11.256;2023-03-03T23:47:39;-4.00;99.90
8643;DHT22;4359;49.358;11.256;2023-03-03T23:50:05;-3.90;99.90
8643;DHT22;4359;49.358;11.256;2023-03-03T23:52:31;-3.90;99.90
8643;DHT22;4359;49.358;11.256;2023-03-03T23:54:57;-3.90;99.90
8643;DHT22;4359;49.358;11.256;2023-03-03T23:57:22;-3.90;99.90
8643;DHT22;4359;49.358;11.256;2023-03-03T23:59:48;-4.10;99.90
